Terminal Aerodrome Forecast
Issued by NWS

Current Version | Previous Version | Graphics & Text | Print | Product List | Glossary On
Versions: 1 2 3 4 5 6 7 8 9 10 11 12 13 14 15 16
000
FTUS41 KILN 282332
TAFLCK
TAF
KLCK 282332Z 2900/2924 00000KT P6SM SCT040 BKN250
     FM290600 00000KT 3SM BR SCT250
     FM290900 00000KT 1/2SM FG SCT250
     FM291300 22005KT P6SM SCT035 BKN250
     FM292100 27008KT P6SM VCTS BKN035CB
     FM292300 28007KT P6SM FEW035 BKN200=

USA.gov is the U.S. government's official web portal to all federal, state and local government web resources and services.